Time;durP1;ratioP1;P1;durP2;ratioP2;P2;SDS_P1;SDS_P2;PMS_P1;PMS_P2;Temp;Humidity;BMP_temperature;BMP_pressure;BME280_temperature;BME280_humidity;BME280_pressure;Samples;Min_cycle;Max_cycle;Signal;HPM_P1;HPM_P2
2022/05/02 00:00:58;;;;;;;32.37;21.70;;;10.60;99.90;;;;;;5113056;28;20179;-58
2022/05/02 00:03:25;;;;;;;37.90;22.20;;;10.50;99.90;;;;;;5112465;28;20237;-57
2022/05/02 00:05:51;;;;;;;33.37;21.07;;;10.50;99.90;;;;;;5112696;28;20171;-59
2022/05/02 00:08:17;;;;;;;31.87;20.50;;;10.50;99.90;;;;;;5112769;28;20179;-58
2022/05/02 00:10:43;;;;;;;29.10;18.77;;;10.50;99.90;;;;;;5112698;28;20206;-58
2022/05/02 00:13:09;;;;;;;29.53;18.83;;;10.50;99.90;;;;;;5112770;28;20206;-58
2022/05/02 00:15:37;;;;;;;33.20;20.07;;;10.60;99.90;;;;;;5112631;28;20645;-58
2022/05/02 00:18:04;;;;;;;30.27;19.40;;;10.60;99.90;;;;;;5112494;28;20175;-57
2022/05/02 00:20:34;;;;;;;33.17;21.07;;;10.60;99.90;;;;;;5112708;27;20183;-57
2022/05/02 00:23:02;;;;;;;30.63;19.50;;;10.60;99.90;;;;;;5111348;28;20175;-57
2022/05/02 00:25:29;;;;;;;26.33;16.90;;;10.60;99.90;;;;;;5112456;28;20166;-57
2022/05/02 00:27:55;;;;;;;28.03;18.47;;;10.60;99.90;;;;;;5112512;28;20228;-57
2022/05/02 00:30:21;;;;;;;29.83;18.97;;;10.60;99.90;;;;;;5112353;28;20255;-57
2022/05/02 00:32:47;;;;;;;30.67;19.03;;;10.60;99.90;;;;;;5112565;28;20171;-57
2022/05/02 00:35:13;;;;;;;29.13;18.47;;;10.60;99.90;;;;;;5112442;28;20167;-57
2022/05/02 00:37:41;;;;;;;27.33;16.33;;;10.60;99.90;;;;;;5112274;28;20182;-57
2022/05/02 00:40:08;;;;;;;24.63;15.17;;;10.60;99.90;;;;;;5112154;28;20847;-57
2022/05/02 00:42:34;;;;;;;27.03;15.83;;;10.60;99.90;;;;;;5112101;28;20559;-57
2022/05/02 00:45:00;;;;;;;29.63;16.27;;;10.50;99.90;;;;;;5112266;28;20365;-58
2022/05/02 00:47:26;;;;;;;25.50;16.23;;;10.60;99.90;;;;;;5112044;27;20649;-57
2022/05/02 00:49:52;;;;;;;26.13;16.10;;;10.50;99.90;;;;;;5111764;28;20222;-58
2022/05/02 00:52:19;;;;;;;27.57;16.40;;;10.60;99.90;;;;;;5110591;28;20202;-58
2022/05/02 00:54:46;;;;;;;28.47;15.47;;;10.60;99.90;;;;;;5111865;28;20244;-57
2022/05/02 00:57:13;;;;;;;23.90;15.40;;;10.50;99.90;;;;;;5111913;28;20181;-58
2022/05/02 00:59:40;;;;;;;27.00;15.87;;;10.60;99.90;;;;;;5110687;28;20198;-58
2022/05/02 01:02:07;;;;;;;26.53;15.90;;;10.60;99.90;;;;;;5111956;28;20175;-58
2022/05/02 01:04:34;;;;;;;25.70;16.63;;;10.60;99.90;;;;;;5111716;28;20528;-58
2022/05/02 01:07:10;;;;;;;24.97;16.17;;;10.60;99.90;;;;;;5110272;28;20530;-58
2022/05/02 01:09:42;;;;;;;29.37;16.93;;;10.70;99.90;;;;;;5111666;28;20175;-58
2022/05/02 01:12:19;;;;;;;27.23;16.77;;;10.60;99.90;;;;;;5111664;28;20184;-58
2022/05/02 01:14:49;;;;;;;29.43;17.20;;;10.70;99.90;;;;;;5111424;28;20292;-58
2022/05/02 01:17:15;;;;;;;30.87;18.57;;;10.70;99.90;;;;;;5111610;28;20216;-58
2022/05/02 01:19:43;;;;;;;31.43;18.33;;;10.70;99.90;;;;;;5111470;28;20174;-57
2022/05/02 01:22:09;;;;;;;30.03;17.93;;;10.70;99.90;;;;;;5111519;28;20181;-58
2022/05/02 01:24:42;;;;;;;35.07;19.30;;;10.70;99.90;;;;;;5111751;28;20179;-58
2022/05/02 01:27:10;;;;;;;32.97;18.97;;;10.70;99.90;;;;;;5111533;28;20520;-58
2022/05/02 01:29:37;;;;;;;34.73;19.43;;;10.60;99.90;;;;;;5111479;28;20175;-58
2022/05/02 01:32:08;;;;;;;33.00;19.00;;;10.60;99.90;;;;;;5111480;28;20189;-58
2022/05/02 01:34:35;;;;;;;35.83;20.07;;;10.60;99.90;;;;;;5111486;28;20171;-58
2022/05/02 01:37:02;;;;;;;39.27;21.60;;;10.60;99.90;;;;;;5111538;28;20207;-58
2022/05/02 01:39:30;;;;;;;36.20;20.33;;;10.70;99.90;;;;;;5111424;28;20171;-59
2022/05/02 01:42:00;;;;;;;38.80;20.90;;;10.70;99.90;;;;;;5111491;28;20193;-58
2022/05/02 01:44:27;;;;;;;36.33;20.50;;;10.70;99.90;;;;;;5111238;28;20179;-58
2022/05/02 01:46:53;;;;;;;38.63;21.77;;;10.70;99.90;;;;;;5111297;28;20179;-58
2022/05/02 01:49:19;;;;;;;38.60;21.17;;;10.70;99.90;;;;;;5110975;28;20229;-58
2022/05/02 01:51:45;;;;;;;38.87;21.50;;;10.70;99.90;;;;;;5111208;28;20286;-58
2022/05/02 01:54:11;;;;;;;40.13;22.37;;;10.70;99.90;;;;;;5111366;28;20203;-58
2022/05/02 01:56:37;;;;;;;42.60;22.97;;;10.70;99.90;;;;;;5111030;28;20182;-58
2022/05/02 01:59:04;;;;;;;43.40;23.70;;;10.70;99.90;;;;;;5111060;28;20202;-58
2022/05/02 02:01:30;;;;;;;40.10;22.47;;;10.70;99.90;;;;;;5111273;28;20220;-58
2022/05/02 02:03:58;;;;;;;38.60;22.00;;;10.70;99.90;;;;;;5111055;28;20231;-57
2022/05/02 02:06:24;;;;;;;38.83;21.97;;;10.70;99.90;;;;;;5109162;28;20189;-57
2022/05/02 02:08:50;;;;;;;37.90;22.07;;;10.60;99.90;;;;;;5110717;28;20178;-58
2022/05/02 02:11:16;;;;;;;40.97;21.90;;;10.60;99.90;;;;;;5110876;28;20214;-58
2022/05/02 02:13:41;;;;;;;42.43;22.97;;;10.60;99.90;;;;;;5111051;28;20168;-58
2022/05/02 02:16:10;;;;;;;37.53;21.63;;;10.60;99.90;;;;;;5110980;28;20591;-58
2022/05/02 02:18:40;;;;;;;41.67;22.67;;;10.70;99.90;;;;;;5111269;28;20164;-58
2022/05/02 02:21:08;;;;;;;41.63;21.23;;;10.60;99.90;;;;;;5111142;28;20168;-58
2022/05/02 02:23:34;;;;;;;39.83;21.97;;;10.60;99.90;;;;;;5110866;28;20173;-58
2022/05/02 02:26:00;;;;;;;37.50;21.53;;;10.60;99.90;;;;;;5110724;28;20622;-58
2022/05/02 02:28:26;;;;;;;36.97;21.20;;;10.60;99.90;;;;;;5112509;28;20228;-58
2022/05/02 02:30:52;;;;;;;44.60;21.50;;;10.60;99.90;;;;;;5114695;28;20253;-58
2022/05/02 02:33:17;;;;;;;38.93;22.13;;;10.60;99.90;;;;;;5114628;28;20191;-58
2022/05/02 02:35:43;;;;;;;37.57;22.07;;;10.60;99.90;;;;;;5114725;28;20172;-58
2022/05/02 02:38:12;;;;;;;33.60;20.50;;;10.60;99.90;;;;;;5114594;28;20605;-58
2022/05/02 02:40:39;;;;;;;37.77;20.83;;;10.60;99.90;;;;;;5114597;28;20182;-58
2022/05/02 02:43:06;;;;;;;42.73;22.07;;;10.70;99.90;;;;;;5114535;28;20194;-58
2022/05/02 02:45:32;;;;;;;37.97;21.57;;;10.70;99.90;;;;;;5114244;28;20699;-58
2022/05/02 02:47:57;;;;;;;39.87;21.57;;;10.70;99.90;;;;;;5114647;28;20167;-58
2022/05/02 02:50:23;;;;;;;36.47;21.07;;;10.70;99.90;;;;;;5114068;28;20664;-56
2022/05/02 02:52:49;;;;;;;40.00;20.90;;;10.70;99.90;;;;;;5114381;28;20164;-58
2022/05/02 02:55:15;;;;;;;41.33;21.73;;;10.70;99.90;;;;;;5114231;28;20267;-57
2022/05/02 02:57:41;;;;;;;38.63;21.07;;;10.70;99.90;;;;;;5114145;28;20653;-58
2022/05/02 03:00:07;;;;;;;40.53;21.97;;;10.80;99.90;;;;;;5114155;28;20212;-56
2022/05/02 03:02:37;;;;;;;37.73;21.47;;;10.80;99.90;;;;;;5114212;28;20175;-56
2022/05/02 03:06:03;;;;;;;43.73;22.10;;;10.80;99.90;;;;;;5114036;28;20240;-56
2022/05/02 03:07:59;;;;;;;45.43;23.87;;;10.80;99.90;;;;;;5100364;28;20187;-56
2022/05/02 03:10:26;;;;;;;43.10;23.67;;;10.80;99.90;;;;;;5114078;28;20214;-56
2022/05/02 03:12:51;;;;;;;43.33;23.00;;;10.80;99.90;;;;;;5114034;28;20271;-56
2022/05/02 03:15:17;;;;;;;49.73;23.13;;;10.80;99.90;;;;;;5113977;28;20228;-57
2022/05/02 03:17:43;;;;;;;42.30;23.20;;;10.80;99.90;;;;;;5113903;28;20175;-56
2022/05/02 03:20:09;;;;;;;42.27;23.60;;;10.80;99.90;;;;;;5112437;28;20183;-56
2022/05/02 03:22:35;;;;;;;45.17;23.13;;;10.80;99.90;;;;;;5113760;28;20265;-56
2022/05/02 03:25:01;;;;;;;42.30;22.90;;;10.80;99.90;;;;;;5113774;28;20571;-56
2022/05/02 03:27:27;;;;;;;43.53;23.13;;;10.80;99.90;;;;;;5113722;28;20179;-56
2022/05/02 03:29:52;;;;;;;49.23;27.13;;;10.80;99.90;;;;;;5113625;28;20195;-58
2022/05/02 03:32:18;;;;;;;61.03;29.37;;;10.80;99.90;;;;;;5112274;28;20266;-56
2022/05/02 03:34:44;;;;;;;53.87;27.90;;;10.80;99.90;;;;;;5113656;28;20178;-56
2022/05/02 03:37:10;;;;;;;57.13;28.10;;;10.80;99.90;;;;;;5113474;28;20750;-56
2022/05/02 03:39:35;;;;;;;52.90;25.63;;;10.80;99.90;;;;;;5112439;28;20167;-56
2022/05/02 03:42:01;;;;;;;50.30;25.40;;;10.80;99.90;;;;;;5113594;28;20198;-56
2022/05/02 03:44:27;;;;;;;51.57;25.67;;;10.80;99.90;;;;;;5113274;28;20250;-57
2022/05/02 03:46:53;;;;;;;48.80;24.70;;;10.80;99.90;;;;;;5113155;28;20167;-57
2022/05/02 03:49:18;;;;;;;54.67;27.03;;;10.80;99.90;;;;;;5113095;28;20214;-57
2022/05/02 03:51:44;;;;;;;66.67;28.97;;;10.80;99.90;;;;;;5113033;28;20673;-57
2022/05/02 03:54:10;;;;;;;60.97;29.13;;;10.80;99.90;;;;;;5113315;28;20163;-57
2022/05/02 03:56:36;;;;;;;55.60;27.97;;;10.80;99.90;;;;;;5113088;28;20637;-57
2022/05/02 03:59:02;;;;;;;56.13;28.07;;;10.80;99.90;;;;;;5111712;28;20179;-57
2022/05/02 04:01:28;;;;;;;60.70;28.17;;;10.80;99.90;;;;;;5112944;28;20202;-57
2022/05/02 04:03:53;;;;;;;62.97;28.13;;;10.80;99.90;;;;;;5112931;28;20254;-57
2022/05/02 04:06:19;;;;;;;55.77;28.67;;;10.80;99.90;;;;;;5112935;28;20214;-57
2022/05/02 04:08:46;;;;;;;66.80;31.87;;;10.80;99.90;;;;;;5112883;28;20167;-60
2022/05/02 04:11:12;;;;;;;57.20;27.00;;;10.80;99.90;;;;;;5110516;28;20203;-57
2022/05/02 04:13:38;;;;;;;62.40;29.33;;;10.80;99.90;;;;;;5112691;28;20505;-57
2022/05/02 04:16:04;;;;;;;58.83;29.63;;;10.80;99.90;;;;;;5112751;28;20176;-57
2022/05/02 04:18:29;;;;;;;50.13;26.47;;;10.80;99.90;;;;;;5112639;28;20590;-57
2022/05/02 04:20:55;;;;;;;50.43;25.90;;;10.80;99.90;;;;;;5112543;28;20206;-57
2022/05/02 04:23:21;;;;;;;60.70;29.20;;;10.80;99.90;;;;;;5112596;28;20622;-57
2022/05/02 04:25:46;;;;;;;59.23;28.67;;;10.80;99.90;;;;;;5112561;28;20641;-57
2022/05/02 04:28:12;;;;;;;61.90;30.33;;;10.80;99.90;;;;;;5112337;28;20163;-57
2022/05/02 04:30:38;;;;;;;56.77;28.00;;;10.80;99.90;;;;;;5112347;28;20199;-57
2022/05/02 04:33:05;;;;;;;53.33;26.80;;;10.90;99.90;;;;;;5112364;28;20250;-57
2022/05/02 04:35:30;;;;;;;54.43;27.13;;;10.90;99.90;;;;;;5112331;28;20171;-57
2022/05/02 04:37:57;;;;;;;50.73;25.87;;;10.80;99.90;;;;;;5112319;28;20182;-57
2022/05/02 04:40:23;;;;;;;47.97;24.80;;;10.90;99.90;;;;;;5112291;28;20175;-57
2022/05/02 04:42:48;;;;;;;50.57;26.00;;;10.90;99.90;;;;;;5112191;28;20174;-57
2022/05/02 04:45:14;;;;;;;50.47;26.10;;;10.90;99.90;;;;;;5112132;28;20647;-57
2022/05/02 04:47:40;;;;;;;59.80;27.77;;;10.90;99.90;;;;;;5112140;28;20163;-58
2022/05/02 04:50:06;;;;;;;66.37;29.50;;;10.90;99.90;;;;;;5111446;28;20655;-57
2022/05/02 04:52:32;;;;;;;71.87;31.20;;;10.90;99.90;;;;;;5111921;28;20183;-57
2022/05/02 04:54:57;;;;;;;68.77;29.87;;;10.80;99.90;;;;;;5112019;28;20618;-57
2022/05/02 04:57:23;;;;;;;65.50;29.50;;;10.80;99.90;;;;;;5112040;28;20167;-57
2022/05/02 04:59:49;;;;;;;68.53;29.23;;;10.80;99.90;;;;;;5111802;28;20190;-57
2022/05/02 05:02:15;;;;;;;69.57;28.97;;;10.80;99.90;;;;;;5111955;28;20539;-57
2022/05/02 05:04:40;;;;;;;70.93;28.00;;;10.80;99.90;;;;;;5111704;28;20254;-57
2022/05/02 05:07:06;;;;;;;69.07;27.30;;;10.80;99.90;;;;;;5111732;28;20682;-57
2022/05/02 05:09:32;;;;;;;74.40;27.43;;;10.80;99.90;;;;;;5111889;28;20215;-57
2022/05/02 05:12:06;;;;;;;70.03;28.07;;;10.80;99.90;;;;;;5111646;28;20207;-57
2022/05/02 05:17:53;;;;;;;75.33;28.00;;;10.80;99.90;;;;;;5111917;28;20254;-57
2022/05/02 05:20:41;;;;;;;71.87;28.60;;;10.80;99.90;;;;;;5111472;28;20175;-57
2022/05/02 05:23:19;;;;;;;74.93;30.47;;;10.80;99.90;;;;;;5111103;28;20236;-57
2022/05/02 05:26:10;;;;;;;75.83;28.73;;;10.80;99.90;;;;;;5111883;28;20171;-57
2022/05/02 05:29:12;;;;;;;77.40;28.67;;;10.90;99.90;;;;;;5111592;28;20266;-57
2022/05/02 05:31:44;;;;;;;73.53;29.23;;;10.90;99.90;;;;;;5111262;28;20214;-57
2022/05/02 05:34:30;;;;;;;71.20;29.93;;;10.90;99.90;;;;;;5111381;28;20186;-57
2022/05/02 05:37:14;;;;;;;73.90;30.07;;;10.90;99.90;;;;;;5111355;28;20171;-57
2022/05/02 05:39:53;;;;;;;74.47;29.20;;;10.90;99.90;;;;;;5111390;28;20179;-58
2022/05/02 05:42:57;;;;;;;71.93;29.97;;;10.90;99.90;;;;;;5111360;28;20224;-57
2022/05/02 05:45:28;;;;;;;70.63;28.87;;;10.90;99.90;;;;;;5111242;28;20178;-57
2022/05/02 05:48:12;;;;;;;74.63;30.23;;;10.90;99.90;;;;;;5111364;28;20310;-58
2022/05/02 05:50:41;;;;;;;73.17;29.57;;;10.90;99.90;;;;;;5110864;28;20238;-57
2022/05/02 05:53:12;;;;;;;68.93;28.43;;;10.90;99.90;;;;;;5111383;28;20195;-57
2022/05/02 05:55:48;;;;;;;65.10;28.97;;;11.00;99.90;;;;;;5111089;28;20169;-57
2022/05/02 05:59:10;;;;;;;64.60;28.50;;;11.10;99.90;;;;;;5111141;28;20181;-57
2022/05/02 06:01:47;;;;;;;60.60;26.27;;;11.10;99.90;;;;;;5028352;28;20202;-57
2022/05/02 06:04:15;;;;;;;60.07;28.47;;;11.20;99.90;;;;;;5115254;28;20186;-57
2022/05/02 06:06:41;;;;;;;68.00;28.23;;;11.20;99.90;;;;;;5113996;28;20560;-57
2022/05/02 06:09:10;;;;;;;62.17;28.20;;;11.20;99.90;;;;;;5115192;28;20197;-57
2022/05/02 06:11:39;;;;;;;64.23;29.30;;;11.30;99.90;;;;;;5115106;28;20218;-57
2022/05/02 06:14:06;;;;;;;65.93;29.70;;;11.30;99.90;;;;;;5115080;27;20253;-57
2022/05/02 06:19:27;;;;;;;63.47;28.70;;;11.30;99.90;;;;;;5114908;28;20179;-57
2022/05/02 06:21:54;;;;;;;66.13;29.00;;;11.30;99.90;;;;;;5114761;28;20220;-57
2022/05/02 06:24:25;;;;;;;65.10;29.93;;;11.40;99.90;;;;;;5115044;28;20206;-57
2022/05/02 06:26:53;;;;;;;66.20;30.00;;;11.40;99.90;;;;;;5114932;28;20179;-57
2022/05/02 06:29:20;;;;;;;69.47;29.47;;;11.30;99.90;;;;;;5114723;28;20213;-57
2022/05/02 06:31:48;;;;;;;64.17;29.67;;;11.30;99.90;;;;;;5114608;28;20207;-57
2022/05/02 06:34:18;;;;;;;69.30;30.43;;;11.30;99.90;;;;;;5114509;28;20311;-57
2022/05/02 06:36:59;;;;;;;74.10;30.93;;;11.30;99.90;;;;;;5114673;28;20605;-58
2022/05/02 06:39:52;;;;;;;68.83;30.47;;;11.30;99.90;;;;;;5114503;28;20186;-57
2022/05/02 06:42:41;;;;;;;68.93;28.50;;;11.50;99.90;;;;;;5111630;28;20214;-57
2022/05/02 06:45:07;;;;;;;67.93;29.07;;;11.60;99.90;;;;;;5102604;28;20186;-58
2022/05/02 06:47:41;;;;;;;61.77;28.20;;;11.50;99.90;;;;;;5114426;28;20535;-58
2022/05/02 06:50:07;;;;;;;66.37;28.37;;;11.60;99.90;;;;;;5114002;28;20226;-56
2022/05/02 06:52:53;;;;;;;69.90;29.93;;;11.60;99.90;;;;;;5114383;28;20179;-56
2022/05/02 06:55:33;;;;;;;64.73;28.67;;;11.50;99.90;;;;;;5114340;28;20300;-56
2022/05/02 06:58:20;;;;;;;60.10;27.83;;;11.60;99.90;;;;;;5114461;28;20183;-56
2022/05/02 07:01:16;;;;;;;68.97;28.97;;;11.60;99.90;;;;;;5114245;28;20182;-56
2022/05/02 07:03:47;;;;;;;65.67;28.20;;;11.70;99.90;;;;;;5114065;28;20168;-56
2022/05/02 07:06:16;;;;;;;66.57;29.07;;;11.80;99.90;;;;;;5114274;28;20180;-57
2022/05/02 07:09:03;;;;;;;59.58;27.83;;;11.80;99.90;;;;;;5113949;28;20175;-57
2022/05/02 07:11:47;;;;;;;62.42;27.83;;;11.90;99.90;;;;;;5113939;28;20219;-57
2022/05/02 07:14:30;;;;;;;61.83;29.20;;;11.90;99.90;;;;;;5113703;28;20220;-57
2022/05/02 07:17:00;;;;;;;59.90;27.93;;;12.00;99.90;;;;;;5113828;28;20213;-57
2022/05/02 07:19:35;;;;;;;61.00;27.80;;;12.10;99.90;;;;;;5113886;28;20194;-56
2022/05/02 07:22:07;;;;;;;49.63;24.58;;;12.10;99.90;;;;;;5113694;28;20170;-57
2022/05/02 07:25:06;;;;;;;47.45;23.50;;;12.20;99.90;;;;;;5113807;28;20194;-57
2022/05/02 07:27:44;;;;;;;50.40;23.23;;;12.10;99.90;;;;;;5105648;28;20187;-57
2022/05/02 07:30:10;;;;;;;42.53;22.57;;;12.20;99.90;;;;;;5113607;28;20202;-57
2022/05/02 07:32:36;;;;;;;41.70;21.77;;;12.30;99.90;;;;;;5113674;28;20379;-57
2022/05/02 07:35:03;;;;;;;43.17;21.63;;;12.30;99.90;;;;;;5113631;28;20545;-57
2022/05/02 07:37:32;;;;;;;42.20;21.95;;;12.40;99.90;;;;;;5113603;28;20202;-57
2022/05/02 07:39:59;;;;;;;42.05;23.00;;;12.50;99.90;;;;;;5113615;28;20183;-57
2022/05/02 07:42:29;;;;;;;39.58;21.35;;;12.60;99.90;;;;;;5113450;28;20171;-57
2022/05/02 07:44:59;;;;;;;38.45;21.83;;;12.70;99.90;;;;;;5113324;28;20179;-57
2022/05/02 07:47:27;;;;;;;41.28;22.42;;;12.80;99.90;;;;;;5113290;28;20176;-58
2022/05/02 07:49:56;;;;;;;33.97;19.58;;;12.90;99.90;;;;;;5112930;28;20215;-58
2022/05/02 07:52:24;;;;;;;32.05;19.27;;;12.90;99.90;;;;;;5113312;28;20179;-57
2022/05/02 07:54:52;;;;;;;33.65;19.73;;;13.00;99.90;;;;;;5113098;28;20186;-58
2022/05/02 07:57:20;;;;;;;30.35;18.30;;;13.10;99.90;;;;;;5113233;28;20198;-57
2022/05/02 07:59:50;;;;;;;29.67;17.75;;;13.10;99.90;;;;;;5113094;28;20171;-57
2022/05/02 08:02:18;;;;;;;30.10;17.85;;;13.00;99.90;;;;;;5113085;28;20176;-57
2022/05/02 08:04:45;;;;;;;32.45;19.27;;;13.00;99.90;;;;;;5112965;28;20174;-58
2022/05/02 08:07:11;;;;;;;29.15;17.52;;;13.10;99.90;;;;;;5112879;28;20637;-57
2022/05/02 08:10:14;;;;;;;30.13;17.65;;;13.30;99.90;;;;;;5112836;28;20191;-57
2022/05/02 08:13:01;;;;;;;25.85;16.17;;;13.40;99.90;;;;;;5112806;28;20204;-57
2022/05/02 08:15:40;;;;;;;25.48;16.98;;;13.50;99.90;;;;;;5112888;28;20258;-57
2022/05/02 08:18:36;;;;;;;26.08;15.63;;;13.50;99.90;;;;;;5112853;28;20159;-57
2022/05/02 08:21:03;;;;;;;22.05;14.88;;;13.40;99.90;;;;;;5112826;28;20175;-57
2022/05/02 08:29:45;;;;;;;24.33;15.85;;;13.30;99.90;;;;;;5112517;28;20691;-57
2022/05/02 08:32:38;;;;;;;21.67;14.75;;;13.40;99.90;;;;;;5084116;28;20374;-57
2022/05/02 08:35:08;;;;;;;24.05;15.70;;;13.50;99.90;;;;;;5112322;28;20171;-57
2022/05/02 08:38:02;;;;;;;21.10;14.45;;;13.40;99.90;;;;;;5112326;28;20179;-57
2022/05/02 08:40:28;;;;;;;24.33;15.18;;;13.50;99.90;;;;;;5112311;28;20648;-57
2022/05/02 08:42:59;;;;;;;24.15;14.85;;;13.60;99.90;;;;;;5112193;28;20171;-55
2022/05/02 08:45:43;;;;;;;22.77;14.90;;;13.60;99.90;;;;;;5112095;28;20167;-56
2022/05/02 08:48:15;;;;;;;22.33;14.73;;;13.70;99.90;;;;;;5112245;28;20171;-56
2022/05/02 08:50:59;;;;;;;21.65;14.23;;;13.60;99.90;;;;;;5111825;28;20750;-58
2022/05/02 08:53:31;;;;;;;24.35;15.40;;;13.60;99.90;;;;;;5112048;28;20254;-57
2022/05/02 08:56:26;;;;;;;23.15;14.60;;;13.60;99.90;;;;;;5111779;28;20175;-56
2022/05/02 08:59:29;;;;;;;20.13;13.52;;;13.60;99.90;;;;;;5112024;28;20167;-56
2022/05/02 09:02:33;;;;;;;21.05;14.35;;;13.70;99.90;;;;;;5111967;28;20179;-56
2022/05/02 09:05:08;;;;;;;20.67;13.02;;;13.90;99.90;;;;;;5093048;28;20588;-57
2022/05/02 09:07:46;;;;;;;20.58;13.88;;;14.00;99.90;;;;;;5111754;28;20166;-56
2022/05/02 09:10:53;;;;;;;22.52;14.70;;;14.00;99.90;;;;;;5111635;28;20198;-56
2022/05/02 09:13:40;;;;;;;21.17;13.40;;;14.10;99.90;;;;;;5111416;28;20188;-56
2022/05/02 09:16:45;;;;;;;19.63;13.20;;;14.10;99.90;;;;;;5111606;28;20206;-56
2022/05/02 09:19:33;;;;;;;25.00;13.75;;;14.20;99.90;;;;;;5087398;28;20187;-56
2022/05/02 09:22:13;;;;;;;19.58;13.15;;;14.10;99.90;;;;;;5111398;28;20171;-56
2022/05/02 09:24:57;;;;;;;23.38;13.45;;;14.20;99.90;;;;;;5111522;28;20167;-56
2022/05/02 09:27:51;;;;;;;20.63;14.13;;;14.20;99.90;;;;;;5111596;28;20626;-56
2022/05/02 09:30:48;;;;;;;21.77;13.52;;;14.30;99.90;;;;;;5111397;28;20217;-56
2022/05/02 09:33:36;;;;;;;21.35;13.45;;;14.40;99.90;;;;;;5111463;28;20254;-56
2022/05/02 09:36:23;;;;;;;22.02;14.18;;;14.50;99.90;;;;;;5111389;28;20167;-56
2022/05/02 09:38:52;;;;;;;21.83;14.90;;;14.70;99.90;;;;;;5111422;28;20556;-56
2022/05/02 09:41:36;;;;;;;22.60;14.75;;;14.80;99.90;;;;;;5111272;28;20175;-56
2022/05/02 09:50:34;;;;;;;22.85;14.27;;;15.10;99.90;;;;;;5110947;28;20226;-57
2022/05/02 09:53:14;;;;;;;21.13;14.32;;;14.90;99.90;;;;;;5111179;28;20306;-56
2022/05/02 09:58:43;;;;;;;20.92;13.88;;;14.80;99.90;;;;;;5111102;28;20167;-56
2022/05/02 10:02:07;;;;;;;21.77;13.75;;;14.90;99.90;;;;;;5111170;28;20629;-57
2022/05/02 10:04:54;;;;;;;22.35;14.00;;;15.00;99.90;;;;;;5081257;28;20285;-57
2022/05/02 10:07:24;;;;;;;20.15;13.70;;;15.00;99.90;;;;;;5111158;28;20171;-58
2022/05/02 10:09:59;;;;;;;21.17;13.82;;;14.90;99.90;;;;;;5110955;28;20206;-57
2022/05/02 10:12:46;;;;;;;22.67;13.27;;;14.90;99.90;;;;;;5111117;28;20175;-57
2022/05/02 10:15:28;;;;;;;21.65;14.07;;;15.00;99.90;;;;;;5111026;28;20155;-57
2022/05/02 10:18:16;;;;;;;22.13;13.90;;;15.10;99.90;;;;;;5111089;28;20183;-56
2022/05/02 10:21:03;;;;;;;24.83;14.23;;;15.00;99.90;;;;;;5111050;28;20232;-57
2022/05/02 10:23:49;;;;;;;22.02;14.15;;;15.10;99.90;;;;;;5110925;28;20175;-57
2022/05/02 10:27:00;;;;;;;21.80;13.25;;;15.10;99.90;;;;;;5110953;28;20168;-57
2022/05/02 10:29:50;;;;;;;19.50;12.70;;;15.00;99.90;;;;;;5097085;28;20183;-56
2022/05/02 10:32:47;;;;;;;18.05;12.68;;;15.10;99.90;;;;;;5110984;28;20188;-57
2022/05/02 10:35:15;;;;;;;19.60;13.52;;;15.30;99.90;;;;;;5110846;28;20254;-57
2022/05/02 10:37:47;;;;;;;19.40;13.10;;;15.60;99.90;;;;;;5110801;28;20602;-58
2022/05/02 10:40:13;;;;;;;20.40;12.82;;;15.60;99.90;;;;;;5109610;28;20163;-55
2022/05/02 10:42:51;;;;;;;19.80;12.68;;;15.70;99.90;;;;;;5109380;28;20311;-55
2022/05/02 10:45:17;;;;;;;19.92;12.27;;;15.50;99.90;;;;;;5109743;28;20171;-58
2022/05/02 10:47:59;;;;;;;19.92;12.93;;;15.90;99.90;;;;;;5110954;28;20653;-55
2022/05/02 10:50:32;;;;;;;18.13;11.75;;;15.90;99.90;;;;;;5114097;28;20222;-56
2022/05/02 10:53:22;;;;;;;17.75;12.65;;;15.90;99.90;;;;;;5114427;28;20178;-55
2022/05/02 10:56:08;;;;;;;20.33;12.57;;;16.10;99.90;;;;;;5114286;28;20644;-55
2022/05/02 10:58:34;;;;;;;19.75;12.85;;;16.40;99.90;;;;;;5113947;28;20241;-56
2022/05/02 11:01:15;;;;;;;19.48;12.57;;;16.70;99.90;;;;;;5114084;28;20220;-56
2022/05/02 11:04:02;;;;;;;16.08;11.95;;;16.60;99.90;;;;;;5114012;28;20170;-56
2022/05/02 11:06:58;;;;;;;18.50;12.32;;;16.30;99.90;;;;;;5113884;28;20252;-58
2022/05/02 11:10:05;;;;;;;18.13;11.45;;;16.40;99.90;;;;;;5113962;28;20630;-57
2022/05/02 11:12:37;;;;;;;18.88;12.30;;;16.60;99.90;;;;;;5114004;28;20183;-58
2022/05/02 11:15:06;;;;;;;18.70;12.57;;;16.70;99.90;;;;;;5113700;28;20164;-57
2022/05/02 11:17:38;;;;;;;20.60;13.18;;;16.70;99.90;;;;;;5112900;27;20226;-57
2022/05/02 11:23:12;;;;;;;18.48;12.57;;;16.20;99.90;;;;;;5114157;28;20376;-55
2022/05/02 11:26:17;;;;;;;19.77;12.38;;;16.60;99.90;;;;;;5113922;28;20210;-56
2022/05/02 11:28:51;;;;;;;17.27;11.57;;;16.80;99.90;;;;;;5095202;28;20183;-56
2022/05/02 11:31:34;;;;;;;17.02;11.82;;;17.10;99.90;;;;;;5113504;28;20206;-56
2022/05/02 11:34:10;;;;;;;16.67;11.25;;;17.30;99.90;;;;;;5113502;28;20171;-56
2022/05/02 11:36:45;;;;;;;17.38;11.60;;;17.30;99.90;;;;;;5113509;28;20706;-56
2022/05/02 11:39:26;;;;;;;19.73;12.48;;;17.50;99.90;;;;;;5112217;28;20223;-56
2022/05/02 11:41:57;;;;;;;20.77;11.98;;;17.50;99.90;;;;;;5113481;28;20171;-58
2022/05/02 11:44:31;;;;;;;19.48;12.68;;;17.50;99.90;;;;;;5113267;28;20178;-56
2022/05/02 11:47:02;;;;;;;17.73;11.75;;;17.50;99.90;;;;;;5113371;28;20190;-56
2022/05/02 11:49:38;;;;;;;18.17;11.68;;;17.30;99.90;;;;;;5113408;28;20167;-56
2022/05/02 11:52:09;;;;;;;19.50;12.07;;;16.80;99.90;;;;;;5112014;28;20696;-57
2022/05/02 11:54:39;;;;;;;16.05;10.35;;;16.60;99.90;;;;;;5113282;28;20171;-57
2022/05/02 11:57:22;;;;;;;15.30;10.98;;;16.30;99.90;;;;;;5113054;28;20175;-57
2022/05/02 11:59:55;;;;;;;14.52;10.27;;;16.30;99.90;;;;;;5111854;28;20708;-57
2022/05/02 12:02:45;;;;;;;15.75;10.88;;;16.40;99.90;;;;;;5113047;28;20301;-57
2022/05/02 12:05:33;;;;;;;15.57;10.05;;;16.20;99.90;;;;;;5112900;28;20704;-56
2022/05/02 12:08:04;;;;;;;15.90;10.30;;;16.30;99.90;;;;;;5113199;28;20171;-56
2022/05/02 12:10:45;;;;;;;15.13;10.10;;;15.90;99.90;;;;;;5112787;28;20231;-56
2022/05/02 12:13:12;;;;;;;18.55;11.00;;;16.10;99.90;;;;;;5112756;28;20218;-56
2022/05/02 12:15:59;;;;;;;17.35;10.73;;;16.30;99.90;;;;;;5112541;28;20211;-56
2022/05/02 12:18:47;;;;;;;16.33;10.85;;;16.30;99.90;;;;;;5112817;28;20262;-57
2022/05/02 12:21:40;;;;;;;16.67;11.95;;;16.50;99.90;;;;;;5112703;28;20267;-57
2022/05/02 12:24:07;;;;;;;16.02;11.05;;;16.60;99.90;;;;;;5106123;28;20215;-56
2022/05/02 12:26:42;;;;;;;17.08;11.70;;;16.70;99.90;;;;;;5112667;28;20665;-57
2022/05/02 12:29:18;;;;;;;19.58;11.95;;;16.80;99.90;;;;;;5112593;28;20243;-57
2022/05/02 12:31:55;;;;;;;15.70;11.13;;;17.10;99.90;;;;;;5112505;28;20218;-57
2022/05/02 12:34:23;;;;;;;15.63;11.20;;;17.40;99.90;;;;;;5112244;28;20689;-56
2022/05/02 12:36:56;;;;;;;18.92;12.68;;;17.20;99.90;;;;;;5112275;28;20194;-57
2022/05/02 12:39:26;;;;;;;16.10;11.40;;;17.30;99.90;;;;;;5112357;28;20163;-57
2022/05/02 12:42:17;;;;;;;16.33;11.30;;;17.20;99.90;;;;;;5112364;28;20163;-57
2022/05/02 12:44:57;;;;;;;16.65;10.88;;;17.20;99.90;;;;;;5112125;28;20515;-57
2022/05/02 12:47:27;;;;;;;17.20;11.32;;;17.00;99.90;;;;;;5112146;28;20189;-57
2022/05/02 12:50:08;;;;;;;21.25;11.30;;;17.00;99.90;;;;;;5111874;28;20171;-57
2022/05/02 12:52:41;;;;;;;20.60;12.18;;;17.00;99.90;;;;;;5111955;28;20633;-56
2022/05/02 12:55:09;;;;;;;19.27;11.18;;;16.70;99.90;;;;;;5112071;28;20179;-57
2022/05/02 13:00:31;;;;;;;16.10;11.07;;;16.30;99.90;;;;;;5111963;28;20274;-56
2022/05/02 13:03:02;;;;;;;17.48;12.18;;;16.20;99.90;;;;;;5111959;28;20179;-57
2022/05/02 13:05:32;;;;;;;19.27;12.93;;;16.10;99.90;;;;;;5111762;28;20185;-56
2022/05/02 13:08:10;;;;;;;20.85;12.77;;;16.00;99.90;;;;;;5111761;28;20261;-56
2022/05/02 13:10:36;;;;;;;22.75;13.18;;;16.00;99.90;;;;;;5111493;28;20210;-56
2022/05/02 13:13:13;;;;;;;19.77;12.68;;;16.00;99.90;;;;;;5111584;28;20633;-56
2022/05/02 13:15:48;;;;;;;20.35;13.40;;;16.00;99.90;;;;;;5110344;28;20181;-56
2022/05/02 13:18:17;;;;;;;19.17;11.40;;;15.90;99.90;;;;;;5111363;28;20262;-56
2022/05/02 13:20:56;;;;;;;17.90;11.18;;;15.90;99.90;;;;;;5109349;28;20263;-56
2022/05/02 13:23:22;;;;;;;18.40;11.55;;;15.90;99.90;;;;;;5111651;28;20167;-56
2022/05/02 13:26:08;;;;;;;21.77;13.25;;;15.90;99.90;;;;;;5111512;28;20179;-57
2022/05/02 13:29:09;;;;;;;20.10;12.75;;;16.00;99.90;;;;;;5091206;28;20309;-57